Time;durP1;ratioP1;P1;durP2;ratioP2;P2;SDS_P1;SDS_P2;PMS_P1;PMS_P2;Temp;Humidity;BMP_temperature;BMP_pressure;BME280_temperature;BME280_humidity;BME280_pressure;Samples;Min_cycle;Max_cycle;Signal;HPM_P1;HPM_P2
2022/04/12 00:02:17;;;;;;;11.43;6.68;;;;;;;;;;4963213;28;20075;-82
2022/04/12 00:04:44;;;;;;;13.93;7.20;;;;;;;;;;4967776;28;20047;-80
2022/04/12 00:07:10;;;;;;;13.07;7.00;;;;;;;;;;4969116;28;20918;-81
2022/04/12 00:09:36;;;;;;;12.35;7.18;;;;;;;;;;4968363;28;20048;-80
2022/04/12 00:12:03;;;;;;;12.23;6.25;;;;;;;;;;4966143;28;20062;-81
2022/04/12 00:14:29;;;;;;;11.13;6.10;;;;;;;;;;4984832;28;20063;-80
2022/04/12 00:19:02;;;;;;;15.90;7.88;;;;;;;;;;4969283;28;20047;-80
2022/04/12 00:19:43;;;;;;;13.88;6.93;;;;;;;;;;4986110;28;20114;-82
2022/04/12 00:22:09;;;;;;;12.05;6.82;;;;;;;;;;4967642;28;20838;-80
2022/04/12 00:24:36;;;;;;;13.00;6.63;;;;;;;;;;4984864;28;20051;-80
2022/04/12 00:27:02;;;;;;;12.82;6.53;;;;;;;;;;4969538;28;20063;-80
2022/04/12 00:29:29;;;;;;;11.75;6.38;;;;;;;;;;4968821;28;20051;-81
2022/04/12 00:31:55;;;;;;;11.82;6.47;;;;;;;;;;4983996;28;20054;-82
2022/04/12 00:34:22;;;;;;;11.65;6.35;;;;;;;;;;4964406;28;20062;-80
2022/04/12 00:36:48;;;;;;;11.07;6.05;;;;;;;;;;4966778;28;20052;-81
2022/04/12 00:39:14;;;;;;;13.15;6.72;;;;;;;;;;4961245;28;20075;-80
2022/04/12 00:41:42;;;;;;;10.43;5.50;;;;;;;;;;4967667;28;20075;-80
2022/04/12 00:44:09;;;;;;;12.05;5.53;;;;;;;;;;4983078;28;20082;-81
2022/04/12 00:46:35;;;;;;;10.38;5.53;;;;;;;;;;4969833;28;20055;-80
2022/04/12 00:49:02;;;;;;;11.43;6.05;;;;;;;;;;4970061;28;20059;-82
2022/04/12 00:51:28;;;;;;;10.25;6.00;;;;;;;;;;4985941;28;20055;-81
2022/04/12 00:53:56;;;;;;;11.27;6.40;;;;;;;;;;4949729;28;20048;-81
2022/04/12 00:56:24;;;;;;;10.75;5.90;;;;;;;;;;4967761;28;20063;-80
2022/04/12 00:58:51;;;;;;;11.27;6.03;;;;;;;;;;4968896;28;20051;-81
2022/04/12 01:01:17;;;;;;;14.23;6.43;;;;;;;;;;4969217;28;20051;-81
2022/04/12 01:03:44;;;;;;;11.25;5.68;;;;;;;;;;4969104;28;20097;-81
2022/04/12 01:06:10;;;;;;;12.23;6.32;;;;;;;;;;4967493;28;20063;-81
2022/04/12 01:08:37;;;;;;;15.07;6.70;;;;;;;;;;4968149;28;20039;-80
2022/04/12 01:11:10;;;;;;;12.77;6.18;;;;;;;;;;4963778;28;20058;-82
2022/04/12 01:13:37;;;;;;;13.52;7.07;;;;;;;;;;4964018;28;20059;-82
2022/04/12 01:16:09;;;;;;;11.73;5.85;;;;;;;;;;4987320;28;20055;-82
2022/04/12 01:18:37;;;;;;;14.15;6.80;;;;;;;;;;4968042;28;20051;-80
2022/04/12 01:21:04;;;;;;;13.48;6.55;;;;;;;;;;4967382;28;20841;-80
2022/04/12 01:23:37;;;;;;;11.88;6.45;;;;;;;;;;4965990;28;20111;-80
2022/04/12 01:26:04;;;;;;;11.43;6.43;;;;;;;;;;4966030;28;20059;-82
2022/04/12 01:28:30;;;;;;;12.93;6.68;;;;;;;;;;4967432;28;20080;-80
2022/04/12 01:30:57;;;;;;;15.05;7.30;;;;;;;;;;4966793;28;21326;-82
2022/04/12 01:33:23;;;;;;;15.65;6.82;;;;;;;;;;4983662;28;20112;-80
2022/04/12 01:35:50;;;;;;;12.20;6.45;;;;;;;;;;4966480;28;20055;-81
2022/04/12 01:38:17;;;;;;;11.68;5.68;;;;;;;;;;4966910;28;20066;-80
2022/04/12 01:40:46;;;;;;;10.15;6.60;;;;;;;;;;4966660;28;20043;-80
2022/04/12 01:43:13;;;;;;;11.98;6.45;;;;;;;;;;4959765;28;20047;-80
2022/04/12 01:45:40;;;;;;;10.55;6.18;;;;;;;;;;4966850;28;20059;-80
2022/04/12 01:48:06;;;;;;;11.05;5.78;;;;;;;;;;4984953;28;20055;-82
2022/04/12 01:50:33;;;;;;;12.23;6.22;;;;;;;;;;4966378;28;20075;-82
2022/04/12 01:52:59;;;;;;;11.45;5.93;;;;;;;;;;4982535;28;20055;-80
2022/04/12 01:55:25;;;;;;;13.35;6.47;;;;;;;;;;4966721;28;20051;-81
2022/04/12 01:57:52;;;;;;;11.40;5.80;;;;;;;;;;4983448;28;20063;-81
2022/04/12 02:00:21;;;;;;;11.00;6.15;;;;;;;;;;4965099;28;20059;-81
2022/04/12 02:02:47;;;;;;;11.05;6.03;;;;;;;;;;4965440;28;20561;-81
2022/04/12 02:05:14;;;;;;;11.43;6.30;;;;;;;;;;4962042;28;20051;-81
2022/04/12 02:07:43;;;;;;;12.77;6.03;;;;;;;;;;4958670;28;20146;-82
2022/04/12 02:10:11;;;;;;;12.55;6.00;;;;;;;;;;4966905;28;20075;-82
2022/04/12 02:12:37;;;;;;;11.38;5.88;;;;;;;;;;4963479;28;20066;-81
2022/04/12 02:15:04;;;;;;;13.55;6.75;;;;;;;;;;4952021;28;20083;-82
2022/04/12 02:17:30;;;;;;;13.77;6.40;;;;;;;;;;4966779;28;20075;-82
2022/04/12 02:19:57;;;;;;;12.55;5.95;;;;;;;;;;4967120;28;20059;-81
2022/04/12 02:22:23;;;;;;;11.25;5.93;;;;;;;;;;4965412;28;20048;-82
2022/04/12 02:24:49;;;;;;;13.80;5.90;;;;;;;;;;4981962;28;20114;-81
2022/04/12 02:27:16;;;;;;;11.65;6.47;;;;;;;;;;4966315;28;20071;-79
2022/04/12 02:29:42;;;;;;;10.93;6.30;;;;;;;;;;4966963;28;21015;-80
2022/04/12 02:32:08;;;;;;;13.20;6.45;;;;;;;;;;4965958;28;20075;-81
2022/04/12 02:34:35;;;;;;;12.43;6.60;;;;;;;;;;4965331;28;20519;-82
2022/04/12 02:37:01;;;;;;;11.35;6.15;;;;;;;;;;4967245;28;20054;-81
2022/04/12 02:39:27;;;;;;;11.48;6.00;;;;;;;;;;4969207;28;20056;-81
2022/04/12 02:41:54;;;;;;;11.05;6.40;;;;;;;;;;4982454;28;20073;-80
2022/04/12 02:44:20;;;;;;;12.45;6.55;;;;;;;;;;4958425;28;20117;-82
2022/04/12 02:46:46;;;;;;;12.95;6.35;;;;;;;;;;4967757;28;20611;-80
2022/04/12 02:49:13;;;;;;;12.30;6.68;;;;;;;;;;4968813;28;20055;-81
2022/04/12 02:51:39;;;;;;;12.63;6.32;;;;;;;;;;4969005;28;20074;-80
2022/04/12 02:54:05;;;;;;;12.43;6.50;;;;;;;;;;4968569;28;20067;-80
2022/04/12 02:56:32;;;;;;;12.57;6.60;;;;;;;;;;4983814;28;20055;-81
2022/04/12 02:58:58;;;;;;;13.35;6.57;;;;;;;;;;4951763;28;20044;-80
2022/04/12 03:01:25;;;;;;;11.32;6.18;;;;;;;;;;4971806;28;20040;-80
2022/04/12 03:03:52;;;;;;;10.90;6.07;;;;;;;;;;4983899;28;20969;-81
2022/04/12 03:06:18;;;;;;;14.25;6.45;;;;;;;;;;4968197;28;20090;-81
2022/04/12 03:08:44;;;;;;;11.32;6.22;;;;;;;;;;4969631;28;20047;-81
2022/04/12 03:11:11;;;;;;;9.95;5.60;;;;;;;;;;4986196;28;20058;-81
2022/04/12 03:13:38;;;;;;;15.13;6.55;;;;;;;;;;4968252;28;20102;-81
2022/04/12 03:16:04;;;;;;;9.73;6.10;;;;;;;;;;4969172;28;20055;-80
2022/04/12 03:18:31;;;;;;;12.73;6.60;;;;;;;;;;4986920;28;20125;-82
2022/04/12 03:20:57;;;;;;;11.23;6.45;;;;;;;;;;4968422;28;20087;-81
2022/04/12 03:23:24;;;;;;;12.75;6.57;;;;;;;;;;4967768;28;20078;-82
2022/04/12 03:25:50;;;;;;;12.82;6.78;;;;;;;;;;4957544;28;20055;-82
2022/04/12 03:28:17;;;;;;;12.60;7.10;;;;;;;;;;4967955;28;20055;-80
2022/04/12 03:30:43;;;;;;;14.30;7.15;;;;;;;;;;4966848;28;20106;-80
2022/04/12 03:33:09;;;;;;;13.02;6.95;;;;;;;;;;4966882;28;20066;-81
2022/04/12 03:35:36;;;;;;;13.27;6.55;;;;;;;;;;4967475;28;20063;-80
2022/04/12 03:38:02;;;;;;;12.25;6.75;;;;;;;;;;4966128;28;20051;-81
2022/04/12 03:40:31;;;;;;;11.82;6.57;;;;;;;;;;4966058;28;20035;-80
2022/04/12 03:42:58;;;;;;;13.45;6.72;;;;;;;;;;4979614;28;20059;-80
2022/04/12 03:45:25;;;;;;;11.43;6.60;;;;;;;;;;4968239;28;20777;-82
2022/04/12 03:47:51;;;;;;;12.75;6.53;;;;;;;;;;4959431;28;20580;-81
2022/04/12 03:50:17;;;;;;;13.57;7.03;;;;;;;;;;4965272;28;20059;-82
2022/04/12 03:52:44;;;;;;;12.85;6.63;;;;;;;;;;4966468;28;20051;-80
2022/04/12 03:55:11;;;;;;;12.85;6.60;;;;;;;;;;4966465;28;20770;-82
2022/04/12 03:57:37;;;;;;;13.48;6.32;;;;;;;;;;4966940;28;20585;-80
2022/04/12 04:00:08;;;;;;;12.82;6.47;;;;;;;;;;4968299;28;20055;-81
2022/04/12 04:02:34;;;;;;;;;;;;;;;;;;4967012;28;20097;-81
2022/04/12 04:05:01;;;;;;;12.05;6.38;;;;;;;;;;4966483;28;46914;-80
2022/04/12 04:07:27;;;;;;;12.73;6.13;;;;;;;;;;4964053;28;20098;-81
2022/04/12 04:09:54;;;;;;;14.18;6.63;;;;;;;;;;4966693;28;20063;-81
2022/04/12 04:12:20;;;;;;;15.15;7.35;;;;;;;;;;4961815;28;20560;-81
2022/04/12 04:14:47;;;;;;;15.15;6.82;;;;;;;;;;4967319;28;20134;-81
2022/04/12 04:17:13;;;;;;;14.68;7.75;;;;;;;;;;4966828;28;20094;-80
2022/04/12 04:19:40;;;;;;;13.43;7.53;;;;;;;;;;4967408;28;20048;-80
2022/04/12 04:22:06;;;;;;;14.70;7.15;;;;;;;;;;4979020;28;20071;-81
2022/04/12 04:24:34;;;;;;;14.65;7.13;;;;;;;;;;4963549;28;20055;-80
2022/04/12 04:27:03;;;;;;;11.73;6.80;;;;;;;;;;4958519;28;20858;-81
2022/04/12 04:29:33;;;;;;;15.73;7.47;;;;;;;;;;4970100;28;20523;-81
2022/04/12 04:31:59;;;;;;;16.17;7.17;;;;;;;;;;4974946;28;20044;-81
2022/04/12 04:34:25;;;;;;;13.35;7.28;;;;;;;;;;4977313;28;20086;-79
2022/04/12 04:36:52;;;;;;;15.95;7.72;;;;;;;;;;4960957;28;20205;-81
2022/04/12 04:39:18;;;;;;;17.30;7.63;;;;;;;;;;4977881;28;20114;-80
2022/04/12 04:41:44;;;;;;;14.43;7.68;;;;;;;;;;4960895;28;20083;-80
2022/04/12 04:44:11;;;;;;;13.20;7.57;;;;;;;;;;4962609;28;20172;-80
2022/04/12 04:46:37;;;;;;;16.40;7.72;;;;;;;;;;4980949;28;20079;-79
2022/04/12 04:49:08;;;;;;;14.73;7.85;;;;;;;;;;4979505;28;20059;-80
2022/04/12 04:51:40;;;;;;;14.80;8.50;;;;;;;;;;4964721;28;20043;-79
2022/04/12 04:54:06;;;;;;;13.93;7.10;;;;;;;;;;4980966;28;20988;-79
2022/04/12 04:56:33;;;;;;;18.90;8.00;;;;;;;;;;4963530;28;20051;-79
2022/04/12 04:58:59;;;;;;;18.88;8.77;;;;;;;;;;4977587;28;20051;-80
2022/04/12 05:01:25;;;;;;;13.98;7.90;;;;;;;;;;4964061;28;20067;-79
2022/04/12 05:03:52;;;;;;;13.98;8.02;;;;;;;;;;4966792;28;20152;-79
2022/04/12 05:06:18;;;;;;;15.65;8.15;;;;;;;;;;4963723;28;20102;-81
2022/04/12 05:08:45;;;;;;;13.43;7.72;;;;;;;;;;4979917;28;20051;-80
2022/04/12 05:11:11;;;;;;;13.75;8.65;;;;;;;;;;4958763;28;20055;-81
2022/04/12 05:13:38;;;;;;;13.70;7.93;;;;;;;;;;4974664;28;20048;-80
2022/04/12 05:16:05;;;;;;;14.52;7.88;;;;;;;;;;4949859;28;20047;-81
2022/04/12 05:18:31;;;;;;;16.15;8.55;;;;;;;;;;4964014;28;20067;-81
2022/04/12 05:20:57;;;;;;;20.00;9.57;;;;;;;;;;4962601;28;20277;-80
2022/04/12 05:23:24;;;;;;;18.20;9.23;;;;;;;;;;4960968;28;20083;-81
2022/04/12 05:25:53;;;;;;;22.40;9.70;;;;;;;;;;4981524;28;20063;-81
2022/04/12 05:28:20;;;;;;;16.88;9.35;;;;;;;;;;4964172;28;20051;-80
2022/04/12 05:30:47;;;;;;;19.83;9.23;;;;;;;;;;4964208;28;20063;-80
2022/04/12 05:33:14;;;;;;;19.30;9.15;;;;;;;;;;4977533;28;20114;-79
2022/04/12 05:35:40;;;;;;;16.52;9.25;;;;;;;;;;4945443;28;20067;-79
2022/04/12 05:38:06;;;;;;;21.80;10.35;;;;;;;;;;4976972;28;20118;-81
2022/04/12 05:40:34;;;;;;;16.33;9.50;;;;;;;;;;4961502;28;20931;-80
2022/04/12 05:43:00;;;;;;;22.17;9.23;;;;;;;;;;4969159;28;20083;-80
2022/04/12 05:45:28;;;;;;;16.10;8.70;;;;;;;;;;4961647;28;20059;-79
2022/04/12 05:47:55;;;;;;;16.75;9.05;;;;;;;;;;4961996;28;20047;-80
2022/04/12 05:50:23;;;;;;;19.33;8.98;;;;;;;;;;4959461;28;20091;-81
2022/04/12 05:52:49;;;;;;;20.95;8.90;;;;;;;;;;4964162;28;20059;-81
2022/04/12 05:55:17;;;;;;;15.50;8.73;;;;;;;;;;4961325;28;20046;-81
2022/04/12 05:58:03;;;;;;;16.15;9.18;;;;;;;;;;4960849;28;20877;-79
2022/04/12 06:00:30;;;;;;;17.90;8.98;;;;;;;;;;4959857;28;20102;-79
2022/04/12 06:02:57;;;;;;;14.10;8.32;;;;;;;;;;4967992;28;20059;-79
2022/04/12 06:05:26;;;;;;;23.42;9.13;;;;;;;;;;4972683;28;20185;-79
2022/04/12 06:07:52;;;;;;;16.58;9.65;;;;;;;;;;4962180;28;20066;-79
2022/04/12 06:10:19;;;;;;;15.80;9.02;;;;;;;;;;4962313;28;20059;-78
2022/04/12 06:12:46;;;;;;;16.67;8.80;;;;;;;;;;4956717;28;20127;-79
2022/04/12 06:15:13;;;;;;;16.60;9.05;;;;;;;;;;4959235;28;20066;-79
2022/04/12 06:17:39;;;;;;;16.48;8.65;;;;;;;;;;4962579;28;20207;-80
2022/04/12 06:20:13;;;;;;;15.20;8.63;;;;;;;;;;4962469;28;20097;-79
2022/04/12 06:22:41;;;;;;;17.88;8.65;;;;;;;;;;4963009;28;20098;-79
2022/04/12 06:25:08;;;;;;;19.50;9.20;;;;;;;;;;4961606;28;20044;-80
2022/04/12 06:27:52;;;;;;;14.98;8.23;;;;;;;;;;4961371;28;20096;-79
2022/04/12 06:30:23;;;;;;;15.68;8.02;;;;;;;;;;4964224;28;20054;-80
2022/04/12 06:32:50;;;;;;;16.58;8.60;;;;;;;;;;4963735;28;20806;-81
2022/04/12 06:35:16;;;;;;;15.05;7.65;;;;;;;;;;4980915;28;20055;-81
2022/04/12 06:37:44;;;;;;;17.75;8.25;;;;;;;;;;4980937;28;20043;-79
2022/04/12 06:40:11;;;;;;;15.27;7.90;;;;;;;;;;4962999;28;20509;-79
2022/04/12 06:42:38;;;;;;;13.80;6.85;;;;;;;;;;4974729;28;20062;-79
2022/04/12 06:45:05;;;;;;;13.57;7.32;;;;;;;;;;4961791;28;20062;-79
2022/04/12 06:47:33;;;;;;;11.88;6.97;;;;;;;;;;4979661;28;20719;-81
2022/04/12 06:50:00;;;;;;;16.27;7.30;;;;;;;;;;4964072;28;20051;-79
2022/04/12 06:52:26;;;;;;;11.70;6.30;;;;;;;;;;4970675;28;20055;-80
2022/04/12 06:54:52;;;;;;;11.73;6.57;;;;;;;;;;4974143;28;20106;-81
2022/04/12 06:57:19;;;;;;;15.27;5.97;;;;;;;;;;4979000;28;20093;-81
2022/04/12 06:59:45;;;;;;;10.98;6.10;;;;;;;;;;4955194;28;20146;-86
2022/04/12 07:02:12;;;;;;;13.30;6.80;;;;;;;;;;4959759;28;20087;-79
2022/04/12 07:04:38;;;;;;;11.95;6.22;;;;;;;;;;4979130;28;20047;-82
2022/04/12 07:07:05;;;;;;;13.18;6.55;;;;;;;;;;4962044;28;20059;-82
2022/04/12 07:09:31;;;;;;;13.98;6.50;;;;;;;;;;4991401;28;20073;-80
2022/04/12 07:11:59;;;;;;;13.55;6.75;;;;;;;;;;4963585;28;20035;-80
2022/04/12 07:14:25;;;;;;;13.20;6.13;;;;;;;;;;4973304;28;20091;-80
2022/04/12 07:16:53;;;;;;;13.32;6.00;;;;;;;;;;4962838;28;20063;-80
2022/04/12 07:19:19;;;;;;;17.23;6.15;;;;;;;;;;4967910;28;20976;-80
2022/04/12 07:21:46;;;;;;;11.38;6.20;;;;;;;;;;4966132;28;20051;-80
2022/04/12 07:24:13;;;;;;;11.55;6.20;;;;;;;;;;4965623;28;20039;-80
2022/04/12 07:26:40;;;;;;;13.65;5.93;;;;;;;;;;4961181;28;20083;-81
2022/04/12 07:29:07;;;;;;;15.73;6.15;;;;;;;;;;4965190;28;20086;-80
2022/04/12 07:31:33;;;;;;;12.32;5.50;;;;;;;;;;4967808;28;20091;-80
2022/04/12 07:34:00;;;;;;;11.75;6.18;;;;;;;;;;4964954;28;20048;-79
2022/04/12 07:36:27;;;;;;;12.82;6.07;;;;;;;;;;4965323;28;20078;-81
2022/04/12 07:38:53;;;;;;;11.82;5.75;;;;;;;;;;4952322;28;20094;-82
2022/04/12 07:41:20;;;;;;;13.23;6.05;;;;;;;;;;4959221;28;20051;-80
2022/04/12 07:43:47;;;;;;;15.15;6.25;;;;;;;;;;4981196;28;20098;-80
2022/04/12 07:46:16;;;;;;;10.85;5.40;;;;;;;;;;4977080;28;20055;-80
2022/04/12 07:48:48;;;;;;;15.00;5.57;;;;;;;;;;4973844;28;20062;-80
2022/04/12 07:51:15;;;;;;;10.70;5.78;;;;;;;;;;4947807;28;20155;-79
2022/04/12 07:53:41;;;;;;;10.45;5.72;;;;;;;;;;4965546;28;20063;-80
2022/04/12 07:56:07;;;;;;;14.02;5.88;;;;;;;;;;4951848;28;20056;-80
2022/04/12 07:58:34;;;;;;;12.52;5.85;;;;;;;;;;4957780;28;20078;-81
2022/04/12 08:01:00;;;;;;;11.90;5.43;;;;;;;;;;4953807;28;20067;-81
2022/04/12 08:03:27;;;;;;;10.20;5.38;;;;;;;;;;4965666;28;20064;-79
2022/04/12 08:05:53;;;;;;;10.93;6.15;;;;;;;;;;4967214;28;20079;-80
2022/04/12 08:08:20;;;;;;;13.65;6.05;;;;;;;;;;4962398;28;20055;-80
2022/04/12 08:10:46;;;;;;;10.88;5.65;;;;;;;;;;4964969;28;20090;-82
2022/04/12 08:13:13;;;;;;;11.13;5.60;;;;;;;;;;4982795;28;20047;-80
2022/04/12 08:15:39;;;;;;;10.02;5.60;;;;;;;;;;4964409;28;20051;-81
2022/04/12 08:18:06;;;;;;;11.02;5.43;;;;;;;;;;4981940;28;20064;-79
2022/04/12 08:20:32;;;;;;;10.65;5.63;;;;;;;;;;4966761;28;20041;-79
2022/04/12 08:22:59;;;;;;;9.85;5.22;;;;;;;;;;4964410;28;20083;-80
2022/04/12 08:25:26;;;;;;;13.77;5.68;;;;;;;;;;4955097;28;20495;-80
2022/04/12 08:27:52;;;;;;;14.07;5.53;;;;;;;;;;4962560;28;20055;-80
2022/04/12 08:30:18;;;;;;;10.32;5.47;;;;;;;;;;4958063;28;20055;-81
2022/04/12 08:32:45;;;;;;;12.27;5.90;;;;;;;;;;4964149;28;20058;-81
2022/04/12 08:35:12;;;;;;;10.38;5.38;;;;;;;;;;4953773;28;20056;-82
2022/04/12 08:37:38;;;;;;;10.15;5.63;;;;;;;;;;4961782;28;20108;-81
2022/04/12 08:40:05;;;;;;;10.20;5.60;;;;;;;;;;4962497;28;20051;-81
2022/04/12 08:42:32;;;;;;;10.00;5.88;;;;;;;;;;4947134;28;20080;-81
2022/04/12 08:45:02;;;;;;;11.68;5.60;;;;;;;;;;4972609;28;20058;-82
2022/04/12 08:47:31;;;;;;;10.95;6.22;;;;;;;;;;4968135;28;20605;-82
2022/04/12 08:49:59;;;;;;;12.77;6.50;;;;;;;;;;4960835;28;20039;-81
2022/04/12 08:52:26;;;;;;;13.75;6.25;;;;;;;;;;4972263;28;20209;-80
2022/04/12 08:54:53;;;;;;;9.52;5.93;;;;;;;;;;4964780;28;20130;-81
2022/04/12 08:57:19;;;;;;;14.57;5.57;;;;;;;;;;4960790;28;20070;-81
2022/04/12 08:59:47;;;;;;;9.80;5.32;;;;;;;;;;4980012;28;20067;-80
2022/04/12 09:02:13;;;;;;;9.10;5.32;;;;;;;;;;4959142;28;20079;-80
2022/04/12 09:04:39;;;;;;;12.45;5.85;;;;;;;;;;4958665;28;20040;-81
2022/04/12 09:07:09;;;;;;;9.50;5.72;;;;;;;;;;4958895;28;20146;-80
2022/04/12 09:09:37;;;;;;;11.65;5.85;;;;;;;;;;4976209;28;20062;-80
2022/04/12 09:12:09;;;;;;;13.75;6.97;;;;;;;;;;4975997;28;20079;-82
2022/04/12 09:14:58;;;;;;;10.02;5.90;;;;;;;;;;4964088;28;20044;-80
2022/04/12 09:17:28;;;;;;;10.65;6.22;;;;;;;;;;4966499;28;20056;-80
2022/04/12 09:19:55;;;;;;;10.52;6.07;;;;;;;;;;4963197;28;20929;-81
2022/04/12 09:22:22;;;;;;;11.20;6.47;;;;;;;;;;4959541;28;20059;-80
2022/04/12 09:24:50;;;;;;;11.93;6.03;;;;;;;;;;4955154;28;20347;-80
2022/04/12 09:27:18;;;;;;;9.80;6.25;;;;;;;;;;4973121;28;20075;-80
2022/04/12 09:29:45;;;;;;;12.20;5.88;;;;;;;;;;4954510;28;20087;-81
2022/04/12 09:32:14;;;;;;;9.45;5.75;;;;;;;;;;4976812;28;20130;-80
2022/04/12 09:34:41;;;;;;;11.98;6.05;;;;;;;;;;4959969;28;20059;-81
2022/04/12 09:37:17;;;;;;;10.70;6.72;;;;;;;;;;4970298;28;20064;-80
2022/04/12 09:40:04;;;;;;;10.13;6.15;;;;;;;;;;4973993;28;20111;-81
2022/04/12 09:42:39;;;;;;;9.35;5.68;;;;;;;;;;4967694;28;20090;-81
2022/04/12 09:45:06;;;;;;;9.70;5.68;;;;;;;;;;4957708;28;21882;-80
2022/04/12 09:47:33;;;;;;;10.40;6.13;;;;;;;;;;4956145;28;20996;-81
2022/04/12 09:50:20;;;;;;;9.85;5.65;;;;;;;;;;4962318;28;20059;-80
2022/04/12 09:53:00;;;;;;;8.82;5.53;;;;;;;;;;4951135;28;20047;-84
2022/04/12 09:55:43;;;;;;;9.85;5.30;;;;;;;;;;4974224;28;20055;-80
2022/04/12 09:58:11;;;;;;;11.98;5.22;;;;;;;;;;4973228;28;20138;-80
2022/04/12 10:00:39;;;;;;;9.50;4.00;;;;;;;;;;4970767;28;20059;-80
2022/04/12 10:03:06;;;;;;;11.73;5.65;;;;;;;;;;4972552;28;20082;-80
2022/04/12 10:05:33;;;;;;;10.10;5.13;;;;;;;;;;4955513;28;21213;-79
2022/04/12 10:08:01;;;;;;;8.95;4.05;;;;;;;;;;4972025;28;20059;-80
2022/04/12 10:10:28;;;;;;;8.13;3.80;;;;;;;;;;4956049;28;20059;-80
2022/04/12 10:12:55;;;;;;;7.72;3.72;;;;;;;;;;4973319;28;20059;-80
2022/04/12 10:15:22;;;;;;;9.10;4.22;;;;;;;;;;4967369;28;20059;-80
2022/04/12 10:17:49;;;;;;;7.20;3.85;;;;;;;;;;4954489;28;20142;-80
2022/04/12 10:20:18;;;;;;;8.20;3.60;;;;;;;;;;4972002;28;20062;-80
2022/04/12 10:22:45;;;;;;;10.38;3.70;;;;;;;;;;4955604;28;20075;-80
2022/04/12 10:25:12;;;;;;;9.57;4.03;;;;;;;;;;4963124;28;20055;-80
2022/04/12 10:27:38;;;;;;;12.43;5.65;;;;;;;;;;4973422;28;20118;-80
2022/04/12 10:30:25;;;;;;;10.57;5.50;;;;;;;;;;4954974;28;20586;-79
2022/04/12 10:33:02;;;;;;;12.73;5.82;;;;;;;;;;4972160;28;20119;-80
2022/04/12 10:35:51;;;;;;;9.93;5.40;;;;;;;;;;4954127;28;20043;-80
2022/04/12 10:38:18;;;;;;;11.20;5.00;;;;;;;;;;4953738;28;20051;-80
2022/04/12 10:40:46;;;;;;;11.00;5.72;;;;;;;;;;4946348;28;20143;-80
2022/04/12 10:43:14;;;;;;;9.43;5.53;;;;;;;;;;4955200;28;20125;-80
2022/04/12 10:45:47;;;;;;;12.55;5.43;;;;;;;;;;4953574;28;20142;-81
2022/04/12 10:48:20;;;;;;;9.93;6.03;;;;;;;;;;4977218;28;20581;-80
2022/04/12 10:50:48;;;;;;;9.20;5.93;;;;;;;;;;4981610;28;20288;-81
2022/04/12 10:53:15;;;;;;;11.60;5.53;;;;;;;;;;4952354;28;20166;-80
2022/04/12 10:55:42;;;;;;;9.02;5.28;;;;;;;;;;4960683;28;20517;-80
2022/04/12 10:58:12;;;;;;;9.15;5.00;;;;;;;;;;4970143;28;20088;-81
2022/04/12 11:00:39;;;;;;;9.00;5.32;;;;;;;;;;4957018;28;20094;-81
2022/04/12 11:03:06;;;;;;;9.40;5.43;;;;;;;;;;4974903;28;20123;-80
2022/04/12 11:05:33;;;;;;;9.60;5.53;;;;;;;;;;4958143;28;20047;-80
2022/04/12 11:07:59;;;;;;;9.60;5.18;;;;;;;;;;4956091;28;20055;-80
2022/04/12 11:10:26;;;;;;;8.85;4.70;;;;;;;;;;4957257;28;20118;-80
2022/04/12 11:13:05;;;;;;;8.38;4.97;;;;;;;;;;4946334;28;20152;-80
2022/04/12 11:15:31;;;;;;;9.73;4.88;;;;;;;;;;4953732;28;20059;-80
2022/04/12 11:18:07;;;;;;;8.68;4.72;;;;;;;;;;4944508;28;20106;-80
2022/04/12 11:20:34;;;;;;;7.50;4.20;;;;;;;;;;4964558;28;20090;-80
2022/04/12 11:23:05;;;;;;;10.32;3.85;;;;;;;;;;4973158;28;20166;-80
2022/04/12 11:25:31;;;;;;;7.00;3.33;;;;;;;;;;4950016;28;20759;-80
2022/04/12 11:28:03;;;;;;;8.35;3.35;;;;;;;;;;4952480;28;20073;-79
2022/04/12 11:30:29;;;;;;;7.65;3.47;;;;;;;;;;4972930;28;20059;-80
2022/04/12 11:32:56;;;;;;;7.10;3.00;;;;;;;;;;4974190;28;20146;-80
2022/04/12 11:35:23;;;;;;;7.45;2.97;;;;;;;;;;4957616;28;20059;-80
2022/04/12 11:37:50;;;;;;;7.55;3.10;;;;;;;;;;4971353;28;20069;-80
2022/04/12 11:40:16;;;;;;;8.10;3.80;;;;;;;;;;4970518;28;20065;-80
2022/04/12 11:42:45;;;;;;;8.63;3.75;;;;;;;;;;4966925;28;20110;-81
2022/04/12 11:45:12;;;;;;;8.25;4.40;;;;;;;;;;4969476;28;20051;-81
2022/04/12 11:47:44;;;;;;;7.75;3.78;;;;;;;;;;4953096;28;20138;-78
2022/04/12 11:50:17;;;;;;;9.48;4.07;;;;;;;;;;4954901;28;20055;-80
2022/04/12 11:52:45;;;;;;;10.07;4.07;;;;;;;;;;4973130;28;20518;-80
2022/04/12 11:55:12;;;;;;;8.68;3.65;;;;;;;;;;4955205;28;20087;-80
2022/04/12 11:57:41;;;;;;;11.13;3.80;;;;;;;;;;4972007;28;20070;-79
2022/04/12 12:00:08;;;;;;;9.48;4.18;;;;;;;;;;4973800;28;20051;-80
2022/04/12 12:02:36;;;;;;;8.90;4.60;;;;;;;;;;4956865;28;20059;-81
2022/04/12 12:05:07;;;;;;;9.15;4.70;;;;;;;;;;4970164;28;20094;-79
2022/04/12 12:07:36;;;;;;;10.38;4.75;;;;;;;;;;4953437;28;20090;-79
2022/04/12 12:10:04;;;;;;;8.73;4.75;;;;;;;;;;4956353;28;20055;-80
2022/04/12 12:12:34;;;;;;;10.10;4.95;;;;;;;;;;4964146;28;20090;-80
2022/04/12 12:15:21;;;;;;;10.88;4.25;;;;;;;;;;4955947;28;20055;-81
2022/04/12 12:17:49;;;;;;;8.90;4.05;;;;;;;;;;4967082;28;20062;-79
2022/04/12 12:20:17;;;;;;;8.80;4.63;;;;;;;;;;4955523;28;20048;-79
2022/04/12 12:22:44;;;;;;;8.95;4.72;;;;;;;;;;4949955;28;20122;-79
2022/04/12 12:25:18;;;;;;;10.82;4.65;;;;;;;;;;4975941;28;20137;-79
2022/04/12 12:27:52;;;;;;;9.27;3.80;;;;;;;;;;4957308;28;20216;-80
2022/04/12 12:30:19;;;;;;;7.80;3.42;;;;;;;;;;4955011;28;20099;-80
2022/04/12 12:32:49;;;;;;;7.63;3.78;;;;;;;;;;4970561;28;20055;-80
2022/04/12 12:35:17;;;;;;;8.77;3.83;;;;;;;;;;4954491;28;20083;-80
2022/04/12 12:37:44;;;;;;;9.00;4.45;;;;;;;;;;4976160;28;20142;-80
2022/04/12 12:40:21;;;;;;;8.85;3.83;;;;;;;;;;4967256;28;20051;-79
2022/04/12 12:42:51;;;;;;;10.45;4.90;;;;;;;;;;4962517;28;20051;-80
2022/04/12 12:45:19;;;;;;;9.73;4.88;;;;;;;;;;4946147;28;20110;-80
2022/04/12 12:47:46;;;;;;;9.45;4.40;;;;;;;;;;4971853;28;20612;-79
2022/04/12 12:50:14;;;;;;;15.80;4.65;;;;;;;;;;4972102;28;20083;-80
2022/04/12 12:52:41;;;;;;;11.35;4.78;;;;;;;;;;4955827;28;20134;-80
2022/04/12 12:55:08;;;;;;;12.23;5.75;;;;;;;;;;4971574;28;20079;-80
2022/04/12 12:57:38;;;;;;;11.05;5.18;;;;;;;;;;4972499;28;20059;-79
2022/04/12 13:00:07;;;;;;;13.52;5.18;;;;;;;;;;4955616;28;20118;-79
2022/04/12 13:02:34;;;;;;;12.73;5.63;;;;;;;;;;4942669;28;20074;-79
2022/04/12 13:05:02;;;;;;;10.48;5.13;;;;;;;;;;4971238;28;20066;-80
2022/04/12 13:07:32;;;;;;;12.60;5.45;;;;;;;;;;4936966;28;20090;-80
2022/04/12 13:09:59;;;;;;;;;;;;;;;;;;4955602;28;20079;-80
2022/04/12 13:12:25;;;;;;;12.88;5.72;;;;;;;;;;4967784;28;46961;-80
2022/04/12 13:14:51;;;;;;;11.85;5.47;;;;;;;;;;4959742;28;20055;-80
2022/04/12 13:17:21;;;;;;;12.13;5.90;;;;;;;;;;4951304;28;20527;-80
2022/04/12 13:19:47;;;;;;;10.68;5.07;;;;;;;;;;4952663;28;20917;-80
2022/04/12 13:22:13;;;;;;;11.25;5.40;;;;;;;;;;4953930;28;20082;-80
2022/04/12 13:24:40;;;;;;;12.75;5.60;;;;;;;;;;4955062;28;20059;-80
2022/04/12 13:27:06;;;;;;;10.48;5.47;;;;;;;;;;4955416;28;20094;-80
2022/04/12 13:29:33;;;;;;;12.07;5.60;;;;;;;;;;4972675;28;20047;-80
2022/04/12 13:31:59;;;;;;;11.98;5.35;;;;;;;;;;4972798;28;20150;-80
2022/04/12 13:34:32;;;;;;;11.75;5.53;;;;;;;;;;4951859;28;20051;-80
2022/04/12 13:36:58;;;;;;;12.82;5.65;;;;;;;;;;4952908;28;20593;-79
2022/04/12 13:39:25;;;;;;;9.23;4.82;;;;;;;;;;4971008;28;20217;-80
2022/04/12 13:41:52;;;;;;;9.82;4.78;;;;;;;;;;4951931;28;20155;-80
2022/04/12 13:44:18;;;;;;;13.15;4.53;;;;;;;;;;4969902;28;20118;-79
2022/04/12 13:47:03;;;;;;;9.40;4.80;;;;;;;;;;4950076;28;20134;-80
2022/04/12 13:49:30;;;;;;;;;;;;;;;;;;4965950;28;20087;-81
2022/04/12 13:51:57;;;;;;;11.30;5.25;;;;;;;;;;4968822;28;47601;-79
2022/04/12 13:54:24;;;;;;;11.30;4.35;;;;;;;;;;4954751;28;20044;-80
2022/04/12 13:56:50;;;;;;;13.75;5.40;;;;;;;;;;4962102;28;20094;-80
2022/04/12 13:59:19;;;;;;;12.65;5.85;;;;;;;;;;4947253;28;20055;-81
2022/04/12 14:01:48;;;;;;;14.27;6.03;;;;;;;;;;4949413;28;20059;-80
2022/04/12 14:04:15;;;;;;;13.50;5.70;;;;;;;;;;4971697;28;20059;-80
2022/04/12 14:06:41;;;;;;;12.07;6.10;;;;;;;;;;4970858;28;20138;-80
2022/04/12 14:09:08;;;;;;;21.92;6.18;;;;;;;;;;4968897;28;20055;-80
2022/04/12 14:11:34;;;;;;;13.38;5.93;;;;;;;;;;4966403;28;20150;-81
2022/04/12 14:14:01;;;;;;;16.92;6.10;;;;;;;;;;4945065;28;20060;-81
2022/04/12 14:16:28;;;;;;;11.18;5.72;;;;;;;;;;4949287;28;20079;-81
2022/04/12 14:18:54;;;;;;;9.43;5.22;;;;;;;;;;4970718;28;20059;-81
2022/04/12 14:21:21;;;;;;;10.55;5.78;;;;;;;;;;4952251;28;20063;-80
2022/04/12 14:23:47;;;;;;;18.88;6.20;;;;;;;;;;4953302;28;20114;-81
2022/04/12 14:26:13;;;;;;;11.05;5.47;;;;;;;;;;4952261;28;20085;-81
2022/04/12 14:28:40;;;;;;;11.52;5.53;;;;;;;;;;4970083;28;20110;-80
2022/04/12 14:31:08;;;;;;;9.15;5.13;;;;;;;;;;4971062;28;20113;-80
2022/04/12 14:33:35;;;;;;;9.02;4.75;;;;;;;;;;4969958;28;20110;-81
2022/04/12 14:36:02;;;;;;;9.98;4.85;;;;;;;;;;4970908;28;20110;-81
2022/04/12 14:38:28;;;;;;;8.27;4.82;;;;;;;;;;4953054;28;20067;-80